createdAt,value
2022-08-14T00:02:01.570Z,101208.19
2022-08-14T00:05:10.891Z,101200.94
2022-08-14T00:08:14.511Z,101198.06
2022-08-14T00:11:17.219Z,101191.94
2022-08-14T00:14:19.969Z,101184.69
2022-08-14T00:17:22.544Z,101185.38
2022-08-14T00:20:30.938Z,101189.50
2022-08-14T00:23:40.134Z,101182.91
2022-08-14T00:26:42.795Z,101178.09
2022-08-14T00:29:46.079Z,101173.59
2022-08-14T00:32:56.656Z,101176.31
2022-08-14T00:36:39.280Z,101170.66
2022-08-14T00:39:29.000Z,101168.91
2022-08-14T00:42:55.463Z,101173.06
2022-08-14T00:45:55.483Z,101160.63
2022-08-14T00:48:58.723Z,101154.66
2022-08-14T00:52:02.926Z,101158.06
2022-08-14T00:55:07.616Z,101155.78
2022-08-14T00:58:32.948Z,101156.50
2022-08-14T01:01:36.990Z,101151.84
2022-08-14T01:04:53.569Z,101151.66
2022-08-14T01:07:59.377Z,101149.00
2022-08-14T01:11:02.008Z,101156.88
2022-08-14T01:14:25.950Z,101158.38
2022-08-14T01:17:51.902Z,101154.44
2022-08-14T01:21:04.277Z,101143.16
2022-08-14T01:24:11.005Z,101140.44
2022-08-14T01:27:17.468Z,101134.88
2022-08-14T01:30:26.364Z,101138.44
2022-08-14T01:33:30.450Z,101143.25
2022-08-14T01:36:42.259Z,101138.97
2022-08-14T01:39:47.008Z,101132.78
2022-08-14T01:42:50.729Z,101134.44
2022-08-14T01:46:06.514Z,101135.25
2022-08-14T01:49:11.617Z,101128.16
2022-08-14T01:52:33.999Z,101124.22
2022-08-14T01:55:40.723Z,101120.22
2022-08-14T01:58:57.402Z,101121.81
2022-08-14T02:02:03.989Z,101112.06
2022-08-14T02:05:08.295Z,101109.00
2022-08-14T02:08:11.078Z,101114.47
2022-08-14T02:11:18.834Z,101103.75
2022-08-14T02:14:31.403Z,101109.94
2022-08-14T02:17:35.814Z,101117.28
2022-08-14T02:20:38.589Z,101105.28
2022-08-14T02:23:42.939Z,101111.22
2022-08-14T02:28:20.207Z,101115.38
2022-08-14T02:30:11.519Z,101102.72
2022-08-14T02:33:16.459Z,101097.41
2022-08-14T02:37:04.886Z,101099.88
2022-08-14T02:39:45.730Z,101097.19
2022-08-14T02:42:54.950Z,101089.84
2022-08-14T02:46:00.343Z,101087.59
2022-08-14T02:49:06.634Z,101092.88
2022-08-14T02:52:27.000Z,101080.59
2022-08-14T02:55:33.230Z,101079.03
2022-08-14T02:58:41.781Z,101075.63
2022-08-14T03:01:51.061Z,101080.06
2022-08-14T03:04:57.526Z,101067.75
2022-08-14T03:08:09.668Z,101076.13
2022-08-14T03:11:14.916Z,101068.50
2022-08-14T03:14:21.454Z,101075.34
2022-08-14T03:17:24.082Z,101074.81
2022-08-14T03:20:28.991Z,101075.00
2022-08-14T03:23:37.905Z,101080.28
2022-08-14T03:26:44.005Z,101068.56
2022-08-14T03:29:48.578Z,101069.59
2022-08-14T03:32:51.398Z,101073.91
2022-08-14T03:36:00.028Z,101072.91
2022-08-14T03:39:15.590Z,101066.75
2022-08-14T03:42:25.220Z,101068.81
2022-08-14T03:45:48.541Z,101065.84
2022-08-14T03:48:54.218Z,101071.00
2022-08-14T03:51:57.459Z,101069.00
2022-08-14T03:55:00.845Z,101061.03
2022-08-14T03:58:03.490Z,101061.06
2022-08-14T04:01:09.164Z,101050.50
2022-08-14T04:04:13.338Z,101057.38
2022-08-14T04:07:17.234Z,101052.25
2022-08-14T04:10:31.584Z,101045.22
2022-08-14T04:13:37.740Z,101050.41
2022-08-14T04:16:48.064Z,101044.16
2022-08-14T04:19:51.018Z,101039.84
2022-08-14T04:22:55.673Z,101043.41
2022-08-14T04:25:58.833Z,101036.28
2022-08-14T04:29:14.853Z,101028.94
2022-08-14T04:32:58.294Z,101031.38
2022-08-14T04:35:42.730Z,101026.72
2022-08-14T04:39:16.518Z,101022.66
2022-08-14T04:42:36.747Z,101029.66
2022-08-14T04:45:41.540Z,101016.78
2022-08-14T04:48:51.385Z,101033.09
2022-08-14T04:52:04.081Z,101026.47
2022-08-14T04:55:18.400Z,101014.94
2022-08-14T04:58:32.929Z,101017.75
2022-08-14T05:01:39.862Z,101026.97
2022-08-14T05:04:45.533Z,101025.28
2022-08-14T05:08:09.695Z,101014.22
2022-08-14T05:11:13.424Z,101014.22
2022-08-14T05:14:46.641Z,101016.19
2022-08-14T05:17:43.985Z,101015.69
2022-08-14T05:21:55.615Z,101014.31
2022-08-14T05:24:17.790Z,101009.97
2022-08-14T05:27:23.519Z,101018.81
2022-08-14T05:30:26.759Z,101026.94
2022-08-14T05:33:33.040Z,101011.78
2022-08-14T05:36:37.052Z,101022.41
2022-08-14T05:39:42.230Z,101015.06
2022-08-14T05:42:46.438Z,101005.06
2022-08-14T05:45:49.860Z,101006.25
2022-08-14T05:48:54.847Z,100998.78
2022-08-14T05:52:01.958Z,100995.69
2022-08-14T05:55:06.022Z,100998.84
2022-08-14T05:58:10.033Z,100994.91
2022-08-14T06:01:12.712Z,100991.97
2022-08-14T06:04:17.468Z,100990.03
2022-08-14T06:07:21.391Z,100982.38
2022-08-14T06:10:24.091Z,100983.84
2022-08-14T06:13:31.560Z,100982.66
2022-08-14T06:16:45.174Z,100976.56
2022-08-14T06:19:47.902Z,100978.63
2022-08-14T06:22:53.190Z,100974.38
2022-08-14T06:25:55.852Z,100959.72
2022-08-14T06:29:00.489Z,100955.75
2022-08-14T06:32:38.087Z,100964.59
2022-08-14T06:35:27.830Z,100966.72
2022-08-14T06:38:32.777Z,100960.47
2022-08-14T06:41:58.771Z,100963.94
2022-08-14T06:44:58.430Z,100965.22
2022-08-14T06:48:01.594Z,100966.91
2022-08-14T06:51:04.268Z,100961.06
2022-08-14T06:54:09.479Z,100957.03
2022-08-14T06:57:12.652Z,100955.84
2022-08-14T07:00:22.554Z,100960.81
2022-08-14T07:03:47.310Z,100957.09
2022-08-14T07:06:51.028Z,100958.38
2022-08-14T07:09:55.409Z,100953.09
2022-08-14T07:13:03.660Z,100948.16
2022-08-14T07:16:07.621Z,100943.94
2022-08-14T07:19:10.433Z,100941.94
2022-08-14T07:22:17.578Z,100945.97
2022-08-14T07:25:32.514Z,100942.06
2022-08-14T07:28:43.217Z,100938.81
2022-08-14T07:31:46.470Z,100943.00
2022-08-14T07:34:49.823Z,100940.38
2022-08-14T07:37:52.705Z,100939.53
2022-08-14T07:40:57.680Z,100934.03
2022-08-14T07:44:22.454Z,100928.94
2022-08-14T07:47:23.244Z,100935.94
2022-08-14T07:50:26.158Z,100932.72
2022-08-14T07:53:39.364Z,100933.94
2022-08-14T07:56:47.968Z,100937.28
2022-08-14T07:59:53.381Z,100944.31
2022-08-14T08:02:57.070Z,100946.22
2022-08-14T08:06:03.647Z,100952.06
2022-08-14T08:09:13.507Z,100938.63
2022-08-14T08:12:26.204Z,100930.09
2022-08-14T08:15:36.261Z,100935.38
2022-08-14T08:18:39.250Z,100935.72
2022-08-14T08:21:43.724Z,100937.44
2022-08-14T08:24:46.548Z,100935.38
2022-08-14T08:27:59.504Z,100936.19
2022-08-14T08:31:06.714Z,100930.28
2022-08-14T08:34:14.135Z,100915.94
2022-08-14T08:37:21.755Z,100922.97
2022-08-14T08:40:31.262Z,100915.16
2022-08-14T08:43:36.932Z,100922.31
2022-08-14T08:46:42.695Z,100915.50
2022-08-14T08:49:53.055Z,100914.84
2022-08-14T08:53:04.748Z,100916.66
2022-08-14T08:56:08.101Z,100912.59
2022-08-14T08:59:27.138Z,100903.63
2022-08-14T09:02:33.653Z,100920.03
2022-08-14T09:05:38.721Z,100909.34
2022-08-14T09:08:47.080Z,100907.50
2022-08-14T09:11:49.981Z,100908.56
2022-08-14T09:14:54.602Z,100908.06
2022-08-14T09:17:58.277Z,100903.13
2022-08-14T09:21:00.885Z,100907.38
2022-08-14T09:24:29.069Z,100903.81
2022-08-14T09:27:26.208Z,100898.81
2022-08-14T09:30:33.600Z,100892.69
2022-08-14T09:33:56.292Z,100896.91
2022-08-14T09:37:18.490Z,100888.66
2022-08-14T09:40:37.211Z,100881.19
2022-08-14T09:43:50.765Z,100870.00
2022-08-14T09:46:56.330Z,100863.69
2022-08-14T09:50:00.590Z,100880.34
2022-08-14T09:53:17.965Z,100885.50
2022-08-14T09:56:30.707Z,100867.75
2022-08-14T09:59:44.790Z,100867.50
2022-08-14T10:02:57.786Z,100867.88
2022-08-14T10:06:09.865Z,100866.09
2022-08-14T10:09:16.888Z,100861.19
2022-08-14T10:12:28.789Z,100858.44
2022-08-14T10:15:33.610Z,100852.16
2022-08-14T10:18:37.620Z,100850.41
2022-08-14T10:21:58.425Z,100841.38
2022-08-14T10:25:14.107Z,100838.84
2022-08-14T10:28:39.094Z,100838.50
2022-08-14T10:31:44.509Z,100823.69
2022-08-14T10:34:52.472Z,100831.84
2022-08-14T10:37:55.666Z,100825.59
2022-08-14T10:41:13.310Z,100826.31
2022-08-14T10:44:21.358Z,100827.09
2022-08-14T10:47:41.385Z,100825.50
2022-08-14T10:51:00.231Z,100825.84
2022-08-14T10:54:34.946Z,100824.69
2022-08-14T10:57:35.491Z,100826.88
2022-08-14T11:00:46.907Z,100811.22
2022-08-14T11:03:55.712Z,100818.84
2022-08-14T11:07:01.375Z,100815.94
2022-08-14T11:10:06.980Z,100805.25
2022-08-14T11:13:09.838Z,100809.22
2022-08-14T11:16:13.160Z,100813.94
2022-08-14T11:19:16.518Z,100805.63
2022-08-14T11:22:56.299Z,100810.19
2022-08-14T11:25:52.973Z,100811.28
2022-08-14T11:28:59.915Z,100804.03
2022-08-14T11:32:03.273Z,100793.59
2022-08-14T11:35:06.884Z,100798.91
2022-08-14T11:38:12.534Z,100785.00
2022-08-14T11:41:17.565Z,100776.66
2022-08-14T11:44:46.221Z,100773.19
2022-08-14T11:48:01.225Z,100750.47
2022-08-14T11:51:13.961Z,100746.53
2022-08-14T11:54:19.514Z,100746.19
2022-08-14T11:57:23.007Z,100748.34
2022-08-14T12:00:31.827Z,100744.78
2022-08-14T12:03:51.508Z,100739.88
2022-08-14T12:06:56.698Z,100737.09
2022-08-14T12:10:00.716Z,100732.72
2022-08-14T12:13:23.311Z,100736.75
2022-08-14T12:16:31.317Z,100741.09
2022-08-14T12:19:50.917Z,100730.19
2022-08-14T12:22:55.022Z,100723.31
2022-08-14T12:26:39.455Z,100721.78
2022-08-14T12:29:28.615Z,100708.06
2022-08-14T12:32:41.970Z,100698.09
2022-08-14T12:35:45.660Z,100699.19
2022-08-14T12:38:50.797Z,100698.28
2022-08-14T12:42:06.550Z,100688.97
2022-08-14T12:45:12.988Z,100680.66
2022-08-14T12:48:21.690Z,100684.81
2022-08-14T12:51:34.330Z,100672.97
2022-08-14T12:54:50.535Z,100663.97
2022-08-14T12:58:34.999Z,100665.53
2022-08-14T13:01:31.114Z,100663.31
2022-08-14T13:04:35.432Z,100649.69
2022-08-14T13:07:40.185Z,100648.28
2022-08-14T13:10:52.368Z,100644.06
2022-08-14T13:14:00.547Z,100638.00
2022-08-14T13:17:05.473Z,100632.78
2022-08-14T13:20:24.405Z,100623.50
2022-08-14T13:23:32.983Z,100612.72
2022-08-14T13:26:40.033Z,100619.72
2022-08-14T13:29:53.350Z,100615.25
2022-08-14T13:32:58.388Z,100604.91
2022-08-14T13:36:02.368Z,100607.34
2022-08-14T13:39:05.015Z,100602.34
2022-08-14T13:42:13.365Z,100602.06
2022-08-14T13:45:18.291Z,100590.72
2022-08-14T13:48:32.332Z,100573.84
2022-08-14T13:51:41.314Z,100570.03
2022-08-14T13:54:46.270Z,100562.44
2022-08-14T13:58:04.438Z,100556.44
2022-08-14T14:01:09.403Z,100548.50
2022-08-14T14:04:19.047Z,100550.84
2022-08-14T14:07:23.882Z,100551.97
2022-08-14T14:10:28.159Z,100543.16
2022-08-14T14:13:32.490Z,100551.63
2022-08-14T14:16:38.345Z,100544.59
2022-08-14T14:19:46.286Z,100544.22
2022-08-14T14:23:02.514Z,100542.09
2022-08-14T14:26:06.389Z,100536.41
2022-08-14T14:29:25.943Z,100528.41
2022-08-14T14:32:32.377Z,100526.69
2022-08-14T14:35:38.621Z,100527.28
2022-08-14T14:38:45.027Z,100517.31
2022-08-14T14:41:56.214Z,100509.59
2022-08-14T14:45:05.595Z,100510.84
2022-08-14T14:48:10.012Z,100500.88
2022-08-14T14:51:14.482Z,100498.38
2022-08-14T14:54:30.042Z,100494.34
2022-08-14T14:57:36.361Z,100503.63
2022-08-14T15:00:40.071Z,100491.41
2022-08-14T15:03:46.088Z,100486.34
2022-08-14T15:06:49.073Z,100495.44
2022-08-14T15:09:51.684Z,100507.91
2022-08-14T15:12:57.497Z,100514.25
2022-08-14T15:16:00.731Z,100496.75
2022-08-14T15:19:05.621Z,100489.09
2022-08-14T15:22:10.622Z,100489.84
2022-08-14T15:25:14.689Z,100493.38
2022-08-14T15:28:21.668Z,100496.66
2022-08-14T15:31:24.422Z,100494.72
2022-08-14T15:34:45.885Z,100488.56
2022-08-14T15:37:55.919Z,100475.84
2022-08-14T15:41:04.514Z,100475.06
2022-08-14T15:44:24.659Z,100471.03
2022-08-14T15:47:30.824Z,100467.47
2022-08-14T15:50:35.405Z,100466.88
2022-08-14T15:53:38.038Z,100459.47
2022-08-14T15:56:43.551Z,100453.84
2022-08-14T16:00:04.134Z,100459.53
2022-08-14T16:03:15.543Z,100445.53
2022-08-14T16:06:22.132Z,100445.13
2022-08-14T16:09:25.544Z,100441.28
2022-08-14T16:12:41.333Z,100439.31
2022-08-14T16:15:53.111Z,100440.78
2022-08-14T16:18:58.303Z,100452.72
2022-08-14T16:22:57.160Z,100450.25
2022-08-14T16:25:34.658Z,100453.13
2022-08-14T16:28:38.286Z,100453.22
2022-08-14T16:31:43.529Z,100447.94
2022-08-14T16:34:49.225Z,100449.53
2022-08-14T16:37:59.870Z,100441.75
2022-08-14T16:41:27.178Z,100430.81
2022-08-14T16:44:36.377Z,100431.31
2022-08-14T16:47:39.644Z,100428.97
2022-08-14T16:50:44.527Z,100436.63
2022-08-14T16:53:49.674Z,100429.09
2022-08-14T16:56:53.035Z,100416.31
2022-08-14T16:59:59.205Z,100417.84
2022-08-14T17:03:11.465Z,100421.34
2022-08-14T17:06:30.588Z,100414.69
2022-08-14T17:09:43.569Z,100409.88
2022-08-14T17:12:46.498Z,100405.06
2022-08-14T17:16:05.354Z,100400.09
2022-08-14T17:19:17.591Z,100408.34
2022-08-14T17:22:22.267Z,100400.28
2022-08-14T17:25:36.989Z,100399.06
2022-08-14T17:28:51.802Z,100395.41
2022-08-14T17:32:02.128Z,100386.94
2022-08-14T17:35:10.118Z,100387.97
2022-08-14T17:38:38.643Z,100388.59
2022-08-14T17:41:43.796Z,100375.81
2022-08-14T17:44:48.117Z,100374.50
2022-08-14T17:47:51.426Z,100368.84
2022-08-14T17:50:59.755Z,100370.34
2022-08-14T17:54:04.617Z,100366.91
2022-08-14T17:57:14.868Z,100359.28
2022-08-14T18:00:17.742Z,100355.19
2022-08-14T18:03:50.632Z,100352.91
2022-08-14T18:06:57.815Z,100355.09
2022-08-14T18:10:53.206Z,100361.16
2022-08-14T18:13:50.832Z,100369.69
2022-08-14T18:16:57.140Z,100373.28
2022-08-14T18:19:59.862Z,100371.69
2022-08-14T18:23:06.032Z,100378.97
2022-08-14T18:26:09.598Z,100377.00
2022-08-14T18:29:35.755Z,100368.91
2022-08-14T18:32:55.002Z,100372.66
2022-08-14T18:36:46.670Z,100376.47
2022-08-14T18:39:32.834Z,100371.75
2022-08-14T18:42:45.634Z,100388.44
2022-08-14T18:46:01.818Z,100381.34
2022-08-14T18:49:17.077Z,100382.38
2022-08-14T18:52:20.326Z,100383.44
2022-08-14T18:55:53.124Z,100378.41
2022-08-14T18:58:58.791Z,100386.06
2022-08-14T19:02:42.391Z,100386.56
2022-08-14T19:05:59.601Z,100395.59
2022-08-14T19:09:03.803Z,100396.94
2022-08-14T19:12:06.898Z,100398.84
2022-08-14T19:15:20.702Z,100399.91
2022-08-14T19:18:30.368Z,100397.16
2022-08-14T19:21:44.504Z,100399.53
2022-08-14T19:24:50.414Z,100391.91
2022-08-14T19:28:31.560Z,100395.00
2022-08-14T19:31:42.172Z,100397.19
2022-08-14T19:34:48.114Z,100401.44
2022-08-14T19:37:57.976Z,100399.59
2022-08-14T19:41:02.242Z,100397.19
2022-08-14T19:44:13.312Z,100405.84
2022-08-14T19:47:16.083Z,100403.81
2022-08-14T19:50:30.626Z,100406.03
2022-08-14T19:53:52.829Z,100405.34
2022-08-14T19:56:59.167Z,100404.50
2022-08-14T20:00:07.848Z,100406.72
2022-08-14T20:04:00.628Z,100402.63
2022-08-14T20:07:04.393Z,100408.22
2022-08-14T20:11:09.173Z,100403.97
2022-08-14T20:13:49.446Z,100404.16
2022-08-14T20:16:54.591Z,100415.88
2022-08-14T20:19:59.029Z,100407.75
2022-08-14T20:23:11.207Z,100410.78
2022-08-14T20:26:31.595Z,100411.28
2022-08-14T20:29:38.118Z,100408.41
2022-08-14T20:32:48.130Z,100411.44
2022-08-14T20:35:51.449Z,100410.59
2022-08-14T20:38:57.078Z,100410.72
2022-08-14T20:42:24.287Z,100406.63
2022-08-14T20:45:28.915Z,100414.53
2022-08-14T20:48:52.788Z,100410.97
2022-08-14T20:52:00.249Z,100409.25
2022-08-14T20:55:22.342Z,100408.25
2022-08-14T20:58:44.115Z,100408.91
2022-08-14T21:01:52.052Z,100416.50
2022-08-14T21:05:00.537Z,100412.63
2022-08-14T21:08:09.720Z,100410.28
2022-08-14T21:11:27.968Z,100401.09
2022-08-14T21:14:30.604Z,100412.44
2022-08-14T21:17:38.152Z,100397.94
2022-08-14T21:20:45.441Z,100404.41
2022-08-14T21:23:54.362Z,100395.91
2022-08-14T21:27:02.068Z,100395.44
2022-08-14T21:30:13.993Z,100397.22
2022-08-14T21:33:24.734Z,100396.66
2022-08-14T21:36:31.059Z,100392.25
2022-08-14T21:39:34.236Z,100392.94
2022-08-14T21:42:37.716Z,100392.38
2022-08-14T21:45:40.268Z,100392.31
2022-08-14T21:48:44.614Z,100390.84
2022-08-14T21:51:57.118Z,100402.69
2022-08-14T21:55:09.302Z,100400.91
2022-08-14T21:58:52.085Z,100395.38
2022-08-14T22:02:00.928Z,100396.25
2022-08-14T22:04:59.538Z,100390.47
2022-08-14T22:08:07.298Z,100384.44
2022-08-14T22:11:09.951Z,100383.75
2022-08-14T22:14:25.126Z,100385.16
2022-08-14T22:17:32.416Z,100389.44
2022-08-14T22:20:38.514Z,100390.09
2022-08-14T22:23:41.127Z,100382.25
2022-08-14T22:26:45.076Z,100378.56
2022-08-14T22:29:47.739Z,100377.44
2022-08-14T22:32:59.925Z,100373.69
2022-08-14T22:36:26.214Z,100370.31
2022-08-14T22:40:16.702Z,100366.13
2022-08-14T22:43:00.201Z,100357.28
2022-08-14T22:46:06.083Z,100354.22
2022-08-14T22:50:29.190Z,100345.41
2022-08-14T22:52:49.603Z,100349.50
2022-08-14T22:55:52.924Z,100347.81
2022-08-14T22:58:57.747Z,100341.22
2022-08-14T23:02:03.774Z,100345.88
2022-08-14T23:05:08.107Z,100334.38
2022-08-14T23:08:58.132Z,100323.78
2022-08-14T23:11:37.719Z,100332.28
2022-08-14T23:14:41.738Z,100327.09
2022-08-14T23:17:44.535Z,100336.06
2022-08-14T23:20:49.171Z,100322.75
2022-08-14T23:23:55.033Z,100321.53
2022-08-14T23:26:58.275Z,100308.16
2022-08-14T23:30:00.875Z,100310.88
2022-08-14T23:33:04.225Z,100308.16
2022-08-14T23:36:32.082Z,100312.66
2022-08-14T23:39:33.071Z,100300.59
2022-08-14T23:42:50.395Z,100302.91
2022-08-14T23:45:57.332Z,100301.03
2022-08-14T23:49:00.434Z,100291.66
2022-08-14T23:52:50.868Z,100301.41
2022-08-14T23:55:33.005Z,100291.31
2022-08-14T23:58:37.007Z,100281.31
